sensor_id;sensor_type;location;lat;lon;timestamp;P1;durP1;ratioP1;P2;durP2;ratioP2
3155;SDS011;1588;50.892;7.082;2023-02-03T00:04:48;7.30;;;3.60;;
3155;SDS011;1588;50.892;7.082;2023-02-03T00:09:52;11.20;;;4.83;;
3155;SDS011;1588;50.892;7.082;2023-02-03T00:14:56;22.33;;;4.40;;
3155;SDS011;1588;50.892;7.082;2023-02-03T00:19:59;13.70;;;4.23;;
3155;SDS011;1588;50.892;7.082;2023-02-03T00:25:03;10.90;;;4.60;;
3155;SDS011;1588;50.892;7.082;2023-02-03T00:30:06;13.17;;;4.57;;
3155;SDS011;1588;50.892;7.082;2023-02-03T00:35:09;20.23;;;4.67;;
3155;SDS011;1588;50.892;7.082;2023-02-03T00:40:13;13.10;;;4.30;;
3155;SDS011;1588;50.892;7.082;2023-02-03T00:45:16;11.50;;;4.87;;
3155;SDS011;1588;50.892;7.082;2023-02-03T00:50:19;22.23;;;5.00;;
3155;SDS011;1588;50.892;7.082;2023-02-03T00:55:23;17.33;;;5.00;;
3155;SDS011;1588;50.892;7.082;2023-02-03T01:00:26;13.90;;;4.30;;
3155;SDS011;1588;50.892;7.082;2023-02-03T01:05:28;10.10;;;4.03;;
3155;SDS011;1588;50.892;7.082;2023-02-03T01:10:33;10.50;;;4.00;;
3155;SDS011;1588;50.892;7.082;2023-02-03T01:15:44;9.23;;;4.00;;
3155;SDS011;1588;50.892;7.082;2023-02-03T01:20:49;11.70;;;3.53;;
3155;SDS011;1588;50.892;7.082;2023-02-03T01:25:57;13.17;;;3.30;;
3155;SDS011;1588;50.892;7.082;2023-02-03T01:31:09;6.47;;;3.40;;
3155;SDS011;1588;50.892;7.082;2023-02-03T01:36:14;6.90;;;3.87;;
3155;SDS011;1588;50.892;7.082;2023-02-03T01:41:20;8.23;;;2.60;;
3155;SDS011;1588;50.892;7.082;2023-02-03T01:46:27;10.33;;;3.57;;
3155;SDS011;1588;50.892;7.082;2023-02-03T01:51:33;10.23;;;2.97;;
3155;SDS011;1588;50.892;7.082;2023-02-03T01:56:39;5.77;;;3.20;;
3155;SDS011;1588;50.892;7.082;2023-02-03T02:01:46;7.17;;;3.10;;
3155;SDS011;1588;50.892;7.082;2023-02-03T02:06:50;11.80;;;3.07;;
3155;SDS011;1588;50.892;7.082;2023-02-03T02:11:54;9.77;;;3.70;;
3155;SDS011;1588;50.892;7.082;2023-02-03T02:16:57;10.40;;;3.60;;
3155;SDS011;1588;50.892;7.082;2023-02-03T02:22:08;8.83;;;2.60;;
3155;SDS011;1588;50.892;7.082;2023-02-03T02:27:22;4.80;;;2.43;;
3155;SDS011;1588;50.892;7.082;2023-02-03T02:32:39;9.37;;;3.03;;
3155;SDS011;1588;50.892;7.082;2023-02-03T02:37:49;6.10;;;2.70;;
3155;SDS011;1588;50.892;7.082;2023-02-03T02:43:00;7.70;;;2.50;;
3155;SDS011;1588;50.892;7.082;2023-02-03T02:48:12;8.03;;;2.10;;
3155;SDS011;1588;50.892;7.082;2023-02-03T02:53:22;8.97;;;2.60;;
3155;SDS011;1588;50.892;7.082;2023-02-03T02:58:28;3.27;;;2.03;;
3155;SDS011;1588;50.892;7.082;2023-02-03T03:03:34;2.80;;;2.20;;
3155;SDS011;1588;50.892;7.082;2023-02-03T03:08:40;8.07;;;2.50;;
3155;SDS011;1588;50.892;7.082;2023-02-03T03:13:48;15.87;;;2.43;;
3155;SDS011;1588;50.892;7.082;2023-02-03T03:18:56;7.67;;;2.90;;
3155;SDS011;1588;50.892;7.082;2023-02-03T03:24:02;4.93;;;2.17;;
3155;SDS011;1588;50.892;7.082;2023-02-03T03:29:10;4.57;;;2.50;;
3155;SDS011;1588;50.892;7.082;2023-02-03T03:34:17;8.07;;;2.40;;
3155;SDS011;1588;50.892;7.082;2023-02-03T03:39:23;11.30;;;2.87;;
3155;SDS011;1588;50.892;7.082;2023-02-03T03:44:30;9.50;;;2.97;;
3155;SDS011;1588;50.892;7.082;2023-02-03T03:49:40;6.40;;;2.70;;
3155;SDS011;1588;50.892;7.082;2023-02-03T03:54:46;4.50;;;2.70;;
3155;SDS011;1588;50.892;7.082;2023-02-03T04:00:01;9.90;;;2.90;;
3155;SDS011;1588;50.892;7.082;2023-02-03T04:05:07;7.23;;;3.00;;
3155;SDS011;1588;50.892;7.082;2023-02-03T04:10:15;5.90;;;2.47;;
3155;SDS011;1588;50.892;7.082;2023-02-03T04:15:24;5.77;;;2.70;;
3155;SDS011;1588;50.892;7.082;2023-02-03T04:20:28;8.77;;;3.07;;
3155;SDS011;1588;50.892;7.082;2023-02-03T04:25:33;5.60;;;2.50;;
3155;SDS011;1588;50.892;7.082;2023-02-03T04:30:36;8.10;;;2.90;;
3155;SDS011;1588;50.892;7.082;2023-02-03T04:35:39;7.03;;;3.03;;
3155;SDS011;1588;50.892;7.082;2023-02-03T04:40:42;8.70;;;2.40;;
3155;SDS011;1588;50.892;7.082;2023-02-03T04:45:45;5.50;;;2.40;;
3155;SDS011;1588;50.892;7.082;2023-02-03T04:50:49;7.87;;;2.40;;
3155;SDS011;1588;50.892;7.082;2023-02-03T04:55:52;7.23;;;2.50;;
3155;SDS011;1588;50.892;7.082;2023-02-03T05:00:55;7.40;;;2.37;;
3155;SDS011;1588;50.892;7.082;2023-02-03T05:05:59;12.73;;;2.50;;
3155;SDS011;1588;50.892;7.082;2023-02-03T05:11:02;9.70;;;2.83;;
3155;SDS011;1588;50.892;7.082;2023-02-03T05:16:05;6.80;;;3.50;;
3155;SDS011;1588;50.892;7.082;2023-02-03T05:21:09;4.67;;;2.37;;
3155;SDS011;1588;50.892;7.082;2023-02-03T05:26:12;11.17;;;2.43;;
3155;SDS011;1588;50.892;7.082;2023-02-03T05:31:14;4.40;;;2.00;;
3155;SDS011;1588;50.892;7.082;2023-02-03T05:36:18;4.20;;;2.30;;
3155;SDS011;1588;50.892;7.082;2023-02-03T05:41:22;3.90;;;1.53;;
3155;SDS011;1588;50.892;7.082;2023-02-03T05:46:42;10.77;;;2.87;;
3155;SDS011;1588;50.892;7.082;2023-02-03T05:51:46;9.77;;;2.40;;
3155;SDS011;1588;50.892;7.082;2023-02-03T05:56:48;5.80;;;1.90;;
3155;SDS011;1588;50.892;7.082;2023-02-03T06:01:51;3.73;;;1.60;;
3155;SDS011;1588;50.892;7.082;2023-02-03T06:07:02;15.93;;;2.20;;
3155;SDS011;1588;50.892;7.082;2023-02-03T06:12:11;6.93;;;1.87;;
3155;SDS011;1588;50.892;7.082;2023-02-03T06:17:13;11.60;;;1.70;;
3155;SDS011;1588;50.892;7.082;2023-02-03T06:22:17;7.13;;;1.60;;
3155;SDS011;1588;50.892;7.082;2023-02-03T06:27:20;3.53;;;1.60;;
3155;SDS011;1588;50.892;7.082;2023-02-03T06:32:22;2.60;;;1.37;;
3155;SDS011;1588;50.892;7.082;2023-02-03T06:37:26;2.80;;;1.77;;
3155;SDS011;1588;50.892;7.082;2023-02-03T06:42:32;11.43;;;2.40;;
3155;SDS011;1588;50.892;7.082;2023-02-03T06:47:34;4.50;;;1.93;;
3155;SDS011;1588;50.892;7.082;2023-02-03T06:52:41;5.73;;;1.37;;
3155;SDS011;1588;50.892;7.082;2023-02-03T06:57:44;3.47;;;1.40;;
3155;SDS011;1588;50.892;7.082;2023-02-03T07:02:51;4.73;;;1.67;;
3155;SDS011;1588;50.892;7.082;2023-02-03T07:07:57;5.43;;;1.70;;
3155;SDS011;1588;50.892;7.082;2023-02-03T07:13:01;2.50;;;1.50;;
3155;SDS011;1588;50.892;7.082;2023-02-03T07:18:04;14.53;;;3.20;;
3155;SDS011;1588;50.892;7.082;2023-02-03T07:23:08;4.40;;;1.80;;
3155;SDS011;1588;50.892;7.082;2023-02-03T07:28:10;9.10;;;1.67;;
3155;SDS011;1588;50.892;7.082;2023-02-03T07:33:16;3.90;;;1.60;;
3155;SDS011;1588;50.892;7.082;2023-02-03T07:44:16;11.70;;;2.23;;
3155;SDS011;1588;50.892;7.082;2023-02-03T07:49:37;10.17;;;2.20;;
3155;SDS011;1588;50.892;7.082;2023-02-03T07:55:05;4.40;;;1.30;;
3155;SDS011;1588;50.892;7.082;2023-02-03T08:00:23;7.20;;;1.40;;
3155;SDS011;1588;50.892;7.082;2023-02-03T08:05:49;7.10;;;1.90;;
3155;SDS011;1588;50.892;7.082;2023-02-03T08:11:27;5.13;;;1.60;;
3155;SDS011;1588;50.892;7.082;2023-02-03T08:22:40;2.60;;;1.37;;
3155;SDS011;1588;50.892;7.082;2023-02-03T08:28:19;1.57;;;0.90;;
3155;SDS011;1588;50.892;7.082;2023-02-03T08:33:50;4.60;;;1.17;;
3155;SDS011;1588;50.892;7.082;2023-02-03T08:39:30;6.83;;;1.53;;
3155;SDS011;1588;50.892;7.082;2023-02-03T08:44:58;2.30;;;1.13;;
3155;SDS011;1588;50.892;7.082;2023-02-03T08:50:36;6.60;;;1.40;;
3155;SDS011;1588;50.892;7.082;2023-02-03T08:56:04;1.53;;;1.03;;
3155;SDS011;1588;50.892;7.082;2023-02-03T09:02:15;4.53;;;1.37;;
3155;SDS011;1588;50.892;7.082;2023-02-03T09:08:04;8.40;;;1.83;;
3155;SDS011;1588;50.892;7.082;2023-02-03T09:19:31;3.63;;;1.70;;
3155;SDS011;1588;50.892;7.082;2023-02-03T09:24:34;4.97;;;1.60;;
3155;SDS011;1588;50.892;7.082;2023-02-03T09:29:39;3.97;;;1.93;;
3155;SDS011;1588;50.892;7.082;2023-02-03T09:34:45;6.47;;;1.70;;
3155;SDS011;1588;50.892;7.082;2023-02-03T09:39:47;5.70;;;1.90;;
3155;SDS011;1588;50.892;7.082;2023-02-03T09:44:54;4.13;;;1.80;;
3155;SDS011;1588;50.892;7.082;2023-02-03T09:50:10;9.50;;;2.60;;
3155;SDS011;1588;50.892;7.082;2023-02-03T09:55:22;3.43;;;1.90;;
3155;SDS011;1588;50.892;7.082;2023-02-03T10:00:29;3.40;;;1.60;;
3155;SDS011;1588;50.892;7.082;2023-02-03T10:05:46;5.70;;;2.20;;
3155;SDS011;1588;50.892;7.082;2023-02-03T10:10:57;10.40;;;2.20;;
3155;SDS011;1588;50.892;7.082;2023-02-03T10:16:14;4.13;;;1.83;;
3155;SDS011;1588;50.892;7.082;2023-02-03T10:21:27;1.37;;;0.90;;
3155;SDS011;1588;50.892;7.082;2023-02-03T10:26:39;6.27;;;2.30;;
3155;SDS011;1588;50.892;7.082;2023-02-03T10:31:44;2.80;;;2.10;;
3155;SDS011;1588;50.892;7.082;2023-02-03T10:36:50;5.70;;;2.00;;
3155;SDS011;1588;50.892;7.082;2023-02-03T10:41:56;8.40;;;2.00;;
3155;SDS011;1588;50.892;7.082;2023-02-03T10:47:00;7.00;;;2.33;;
3155;SDS011;1588;50.892;7.082;2023-02-03T10:52:02;6.30;;;3.30;;
3155;SDS011;1588;50.892;7.082;2023-02-03T10:57:05;4.57;;;2.20;;
3155;SDS011;1588;50.892;7.082;2023-02-03T11:02:21;4.80;;;3.00;;
3155;SDS011;1588;50.892;7.082;2023-02-03T11:07:26;9.60;;;2.63;;
3155;SDS011;1588;50.892;7.082;2023-02-03T11:12:31;5.57;;;2.60;;
3155;SDS011;1588;50.892;7.082;2023-02-03T11:17:38;5.07;;;2.20;;
3155;SDS011;1588;50.892;7.082;2023-02-03T11:22:47;10.33;;;2.90;;
3155;SDS011;1588;50.892;7.082;2023-02-03T11:27:50;7.93;;;3.17;;
3155;SDS011;1588;50.892;7.082;2023-02-03T11:32:55;11.17;;;3.10;;
3155;SDS011;1588;50.892;7.082;2023-02-03T11:38:10;6.30;;;2.53;;
3155;SDS011;1588;50.892;7.082;2023-02-03T11:43:31;6.13;;;3.60;;
3155;SDS011;1588;50.892;7.082;2023-02-03T11:48:44;4.87;;;3.10;;
3155;SDS011;1588;50.892;7.082;2023-02-03T11:54:01;7.97;;;3.87;;
3155;SDS011;1588;50.892;7.082;2023-02-03T11:59:27;7.83;;;3.57;;
3155;SDS011;1588;50.892;7.082;2023-02-03T12:04:59;6.73;;;3.87;;
3155;SDS011;1588;50.892;7.082;2023-02-03T12:10:26;6.80;;;3.70;;
3155;SDS011;1588;50.892;7.082;2023-02-03T12:15:39;10.90;;;4.23;;
3155;SDS011;1588;50.892;7.082;2023-02-03T12:20:59;8.97;;;4.40;;
3155;SDS011;1588;50.892;7.082;2023-02-03T12:26:14;8.73;;;4.40;;
3155;SDS011;1588;50.892;7.082;2023-02-03T12:31:23;10.40;;;4.80;;
3155;SDS011;1588;50.892;7.082;2023-02-03T12:36:34;7.60;;;4.43;;
3155;SDS011;1588;50.892;7.082;2023-02-03T12:41:45;9.13;;;4.53;;
3155;SDS011;1588;50.892;7.082;2023-02-03T12:47:00;11.87;;;4.40;;
3155;SDS011;1588;50.892;7.082;2023-02-03T12:52:13;13.13;;;5.77;;
3155;SDS011;1588;50.892;7.082;2023-02-03T12:57:24;9.20;;;5.30;;
3155;SDS011;1588;50.892;7.082;2023-02-03T13:02:32;6.23;;;4.33;;
3155;SDS011;1588;50.892;7.082;2023-02-03T13:07:57;16.73;;;5.67;;
3155;SDS011;1588;50.892;7.082;2023-02-03T13:13:06;20.93;;;6.47;;
3155;SDS011;1588;50.892;7.082;2023-02-03T13:18:17;14.00;;;5.77;;
3155;SDS011;1588;50.892;7.082;2023-02-03T13:23:27;11.67;;;5.70;;
3155;SDS011;1588;50.892;7.082;2023-02-03T13:28:34;16.17;;;7.07;;
3155;SDS011;1588;50.892;7.082;2023-02-03T13:33:56;19.27;;;6.63;;
3155;SDS011;1588;50.892;7.082;2023-02-03T13:39:19;17.33;;;6.50;;
3155;SDS011;1588;50.892;7.082;2023-02-03T13:44:39;14.60;;;7.70;;
3155;SDS011;1588;50.892;7.082;2023-02-03T13:49:43;18.07;;;6.70;;
3155;SDS011;1588;50.892;7.082;2023-02-03T13:55:04;18.37;;;7.43;;
3155;SDS011;1588;50.892;7.082;2023-02-03T14:00:56;17.33;;;7.87;;
3155;SDS011;1588;50.892;7.082;2023-02-03T14:05:53;15.20;;;7.03;;
3155;SDS011;1588;50.892;7.082;2023-02-03T14:16:42;17.10;;;8.43;;
3155;SDS011;1588;50.892;7.082;2023-02-03T14:21:47;23.97;;;7.83;;
3155;SDS011;1588;50.892;7.082;2023-02-03T14:26:54;17.80;;;7.03;;
3155;SDS011;1588;50.892;7.082;2023-02-03T14:31:59;26.27;;;8.40;;
3155;SDS011;1588;50.892;7.082;2023-02-03T14:37:14;18.03;;;7.50;;
3155;SDS011;1588;50.892;7.082;2023-02-03T14:42:27;22.10;;;8.27;;
3155;SDS011;1588;50.892;7.082;2023-02-03T14:48:04;22.57;;;7.20;;
3155;SDS011;1588;50.892;7.082;2023-02-03T14:53:32;19.87;;;7.80;;
3155;SDS011;1588;50.892;7.082;2023-02-03T14:58:43;22.83;;;7.40;;
3155;SDS011;1588;50.892;7.082;2023-02-03T15:09:25;16.53;;;7.40;;
3155;SDS011;1588;50.892;7.082;2023-02-03T15:14:35;12.53;;;6.20;;
3155;SDS011;1588;50.892;7.082;2023-02-03T15:19:41;15.03;;;5.80;;
3155;SDS011;1588;50.892;7.082;2023-02-03T15:24:43;14.30;;;6.67;;
3155;SDS011;1588;50.892;7.082;2023-02-03T15:29:46;22.03;;;7.47;;
3155;SDS011;1588;50.892;7.082;2023-02-03T15:34:50;12.43;;;5.50;;
3155;SDS011;1588;50.892;7.082;2023-02-03T15:39:56;14.33;;;6.37;;
3155;SDS011;1588;50.892;7.082;2023-02-03T15:45:02;16.20;;;6.00;;
3155;SDS011;1588;50.892;7.082;2023-02-03T15:50:23;18.67;;;7.60;;
3155;SDS011;1588;50.892;7.082;2023-02-03T15:55:31;10.67;;;4.90;;
3155;SDS011;1588;50.892;7.082;2023-02-03T16:00:37;12.30;;;5.20;;
3155;SDS011;1588;50.892;7.082;2023-02-03T16:05:42;14.53;;;4.57;;
3155;SDS011;1588;50.892;7.082;2023-02-03T16:10:53;13.83;;;5.07;;
3155;SDS011;1588;50.892;7.082;2023-02-03T16:15:57;14.63;;;4.13;;
3155;SDS011;1588;50.892;7.082;2023-02-03T16:21:04;9.47;;;4.87;;
3155;SDS011;1588;50.892;7.082;2023-02-03T16:26:16;9.80;;;5.23;;
3155;SDS011;1588;50.892;7.082;2023-02-03T16:31:20;6.67;;;3.93;;
3155;SDS011;1588;50.892;7.082;2023-02-03T16:36:51;21.50;;;5.10;;
3155;SDS011;1588;50.892;7.082;2023-02-03T16:42:13;10.10;;;3.60;;
3155;SDS011;1588;50.892;7.082;2023-02-03T16:47:37;16.40;;;4.67;;
3155;SDS011;1588;50.892;7.082;2023-02-03T16:53:01;13.40;;;3.60;;
3155;SDS011;1588;50.892;7.082;2023-02-03T16:58:04;18.20;;;3.10;;
3155;SDS011;1588;50.892;7.082;2023-02-03T17:03:06;16.00;;;3.50;;
3155;SDS011;1588;50.892;7.082;2023-02-03T17:08:13;20.13;;;3.70;;
3155;SDS011;1588;50.892;7.082;2023-02-03T17:13:17;16.73;;;3.93;;
3155;SDS011;1588;50.892;7.082;2023-02-03T17:18:20;16.13;;;4.00;;
3155;SDS011;1588;50.892;7.082;2023-02-03T17:23:27;10.10;;;3.43;;
3155;SDS011;1588;50.892;7.082;2023-02-03T17:28:30;12.97;;;4.30;;
3155;SDS011;1588;50.892;7.082;2023-02-03T17:33:34;10.20;;;2.97;;
3155;SDS011;1588;50.892;7.082;2023-02-03T17:38:40;26.93;;;4.50;;
3155;SDS011;1588;50.892;7.082;2023-02-03T17:43:44;9.73;;;3.10;;
3155;SDS011;1588;50.892;7.082;2023-02-03T17:48:47;11.63;;;2.57;;
3155;SDS011;1588;50.892;7.082;2023-02-03T17:53:54;15.60;;;3.23;;
3155;SDS011;1588;50.892;7.082;2023-02-03T17:59:03;11.30;;;2.70;;
3155;SDS011;1588;50.892;7.082;2023-02-03T18:04:14;16.70;;;3.73;;
3155;SDS011;1588;50.892;7.082;2023-02-03T18:09:21;13.03;;;3.20;;
3155;SDS011;1588;50.892;7.082;2023-02-03T18:14:27;19.47;;;3.77;;
3155;SDS011;1588;50.892;7.082;2023-02-03T18:19:29;22.50;;;4.20;;
3155;SDS011;1588;50.892;7.082;2023-02-03T18:24:33;16.40;;;4.27;;
3155;SDS011;1588;50.892;7.082;2023-02-03T18:30:01;16.80;;;4.60;;
3155;SDS011;1588;50.892;7.082;2023-02-03T18:35:04;18.70;;;3.17;;
3155;SDS011;1588;50.892;7.082;2023-02-03T18:40:28;25.03;;;4.77;;
3155;SDS011;1588;50.892;7.082;2023-02-03T18:45:31;24.67;;;4.57;;
3155;SDS011;1588;50.892;7.082;2023-02-03T18:50:36;19.80;;;3.47;;
3155;SDS011;1588;50.892;7.082;2023-02-03T18:55:45;13.33;;;3.90;;
3155;SDS011;1588;50.892;7.082;2023-02-03T19:00:48;14.23;;;3.57;;
3155;SDS011;1588;50.892;7.082;2023-02-03T19:05:51;22.10;;;3.33;;
3155;SDS011;1588;50.892;7.082;2023-02-03T19:10:55;11.03;;;2.63;;
3155;SDS011;1588;50.892;7.082;2023-02-03T19:15:57;18.20;;;3.17;;
3155;SDS011;1588;50.892;7.082;2023-02-03T19:21:01;25.83;;;3.60;;
3155;SDS011;1588;50.892;7.082;2023-02-03T19:26:05;15.73;;;2.73;;
3155;SDS011;1588;50.892;7.082;2023-02-03T19:31:09;21.00;;;3.60;;
3155;SDS011;1588;50.892;7.082;2023-02-03T19:36:14;18.53;;;4.07;;
3155;SDS011;1588;50.892;7.082;2023-02-03T19:41:18;17.70;;;4.30;;
3155;SDS011;1588;50.892;7.082;2023-02-03T19:46:20;19.70;;;3.87;;
3155;SDS011;1588;50.892;7.082;2023-02-03T19:51:24;19.43;;;4.23;;
3155;SDS011;1588;50.892;7.082;2023-02-03T19:56:28;23.33;;;4.57;;
3155;SDS011;1588;50.892;7.082;2023-02-03T20:01:30;14.67;;;4.90;;
3155;SDS011;1588;50.892;7.082;2023-02-03T20:06:33;14.50;;;4.30;;
3155;SDS011;1588;50.892;7.082;2023-02-03T20:11:40;12.97;;;4.13;;
3155;SDS011;1588;50.892;7.082;2023-02-03T20:16:42;20.57;;;4.30;;
3155;SDS011;1588;50.892;7.082;2023-02-03T20:21:50;16.03;;;5.00;;
3155;SDS011;1588;50.892;7.082;2023-02-03T20:26:56;14.50;;;4.97;;
3155;SDS011;1588;50.892;7.082;2023-02-03T20:31:59;21.17;;;5.80;;
3155;SDS011;1588;50.892;7.082;2023-02-03T20:37:01;19.53;;;5.57;;
3155;SDS011;1588;50.892;7.082;2023-02-03T20:42:10;25.33;;;6.57;;
3155;SDS011;1588;50.892;7.082;2023-02-03T20:47:16;18.93;;;6.80;;
3155;SDS011;1588;50.892;7.082;2023-02-03T20:52:20;18.97;;;6.63;;
3155;SDS011;1588;50.892;7.082;2023-02-03T20:57:24;16.83;;;6.27;;
3155;SDS011;1588;50.892;7.082;2023-02-03T21:02:26;26.80;;;6.07;;
3155;SDS011;1588;50.892;7.082;2023-02-03T21:07:51;8.60;;;3.27;;
3155;SDS011;1588;50.892;7.082;2023-02-03T21:13:01;23.53;;;4.80;;
3155;SDS011;1588;50.892;7.082;2023-02-03T21:23:50;16.47;;;4.63;;
3155;SDS011;1588;50.892;7.082;2023-02-03T21:28:58;16.63;;;4.10;;
3155;SDS011;1588;50.892;7.082;2023-02-03T21:34:10;11.97;;;2.67;;
3155;SDS011;1588;50.892;7.082;2023-02-03T21:39:27;19.00;;;3.50;;
3155;SDS011;1588;50.892;7.082;2023-02-03T21:44:43;9.90;;;3.20;;
3155;SDS011;1588;50.892;7.082;2023-02-03T21:49:46;10.77;;;2.93;;
3155;SDS011;1588;50.892;7.082;2023-02-03T21:54:48;21.00;;;3.47;;
3155;SDS011;1588;50.892;7.082;2023-02-03T21:59:52;15.80;;;4.03;;
3155;SDS011;1588;50.892;7.082;2023-02-03T22:04:55;20.70;;;3.40;;
3155;SDS011;1588;50.892;7.082;2023-02-03T22:09:58;23.10;;;3.87;;
3155;SDS011;1588;50.892;7.082;2023-02-03T22:15:02;18.77;;;2.50;;
3155;SDS011;1588;50.892;7.082;2023-02-03T22:20:05;21.00;;;3.07;;
3155;SDS011;1588;50.892;7.082;2023-02-03T22:25:08;18.57;;;2.50;;
3155;SDS011;1588;50.892;7.082;2023-02-03T22:30:13;15.23;;;2.73;;
3155;SDS011;1588;50.892;7.082;2023-02-03T22:35:17;19.60;;;3.40;;
3155;SDS011;1588;50.892;7.082;2023-02-03T22:40:19;15.37;;;2.97;;
3155;SDS011;1588;50.892;7.082;2023-02-03T22:45:23;21.40;;;3.67;;
3155;SDS011;1588;50.892;7.082;2023-02-03T22:50:26;17.70;;;3.50;;
3155;SDS011;1588;50.892;7.082;2023-02-03T22:55:28;22.17;;;3.00;;
3155;SDS011;1588;50.892;7.082;2023-02-03T23:00:42;16.30;;;3.20;;
3155;SDS011;1588;50.892;7.082;2023-02-03T23:05:44;20.87;;;3.17;;
3155;SDS011;1588;50.892;7.082;2023-02-03T23:10:46;22.63;;;2.97;;
3155;SDS011;1588;50.892;7.082;2023-02-03T23:15:51;27.37;;;3.33;;
3155;SDS011;1588;50.892;7.082;2023-02-03T23:20:53;19.03;;;2.97;;
3155;SDS011;1588;50.892;7.082;2023-02-03T23:25:55;14.13;;;2.90;;
3155;SDS011;1588;50.892;7.082;2023-02-03T23:30:59;10.60;;;2.67;;
3155;SDS011;1588;50.892;7.082;2023-02-03T23:36:06;16.00;;;3.33;;
3155;SDS011;1588;50.892;7.082;2023-02-03T23:41:08;15.80;;;2.60;;
3155;SDS011;1588;50.892;7.082;2023-02-03T23:46:12;14.93;;;3.17;;
3155;SDS011;1588;50.892;7.082;2023-02-03T23:51:15;19.47;;;3.10;;
3155;SDS011;1588;50.892;7.082;2023-02-03T23:56:17;33.80;;;3.27;;
